sensor_id;sensor_type;location;lat;lon;timestamp;pressure;altitude;pressure_sealevel;temperature;humidity
63190;BME280;49286;44.460;26.114;2022-12-07T00:00:48;100868.78;;;5.15;100.00
63190;BME280;49286;44.460;26.114;2022-12-07T00:03:13;100866.34;;;5.21;100.00
63190;BME280;49286;44.460;26.114;2022-12-07T00:05:39;100851.44;;;5.16;100.00
63190;BME280;49286;44.460;26.114;2022-12-07T00:08:04;100831.72;;;4.94;100.00
63190;BME280;49286;44.460;26.114;2022-12-07T00:10:30;100853.25;;;5.18;100.00
63190;BME280;49286;44.460;26.114;2022-12-07T00:12:55;100856.53;;;5.13;100.00
63190;BME280;49286;44.460;26.114;2022-12-07T00:15:21;100837.31;;;5.07;100.00
63190;BME280;49286;44.460;26.114;2022-12-07T00:17:46;100840.72;;;5.05;100.00
63190;BME280;49286;44.460;26.114;2022-12-07T00:20:12;100843.28;;;5.03;100.00
63190;BME280;49286;44.460;26.114;2022-12-07T00:22:37;100855.63;;;5.11;100.00
63190;BME280;49286;44.460;26.114;2022-12-07T00:25:03;100709.53;;;4.33;100.00
63190;BME280;49286;44.460;26.114;2022-12-07T00:27:31;100835.66;;;5.10;100.00
63190;BME280;49286;44.460;26.114;2022-12-07T00:29:56;100752.69;;;4.58;100.00
63190;BME280;49286;44.460;26.114;2022-12-07T00:32:22;100827.69;;;5.03;100.00
63190;BME280;49286;44.460;26.114;2022-12-07T00:34:47;100704.94;;;4.25;100.00
63190;BME280;49286;44.460;26.114;2022-12-07T00:37:13;100843.44;;;5.08;100.00
63190;BME280;49286;44.460;26.114;2022-12-07T00:39:38;100717.75;;;4.49;100.00
63190;BME280;49286;44.460;26.114;2022-12-07T00:42:04;100709.47;;;4.32;100.00
63190;BME280;49286;44.460;26.114;2022-12-07T00:44:29;100825.84;;;4.99;100.00
63190;BME280;49286;44.460;26.114;2022-12-07T00:46:55;100837.31;;;5.06;100.00
63190;BME280;49286;44.460;26.114;2022-12-07T00:49:21;100816.88;;;4.90;100.00
63190;BME280;49286;44.460;26.114;2022-12-07T00:51:48;100799.56;;;4.90;100.00
63190;BME280;49286;44.460;26.114;2022-12-07T00:54:13;100810.91;;;4.94;100.00
63190;BME280;49286;44.460;26.114;2022-12-07T00:56:40;100796.16;;;4.93;100.00
63190;BME280;49286;44.460;26.114;2022-12-07T00:59:06;100723.81;;;4.48;100.00
63190;BME280;49286;44.460;26.114;2022-12-07T01:01:35;100756.88;;;4.53;100.00
63190;BME280;49286;44.460;26.114;2022-12-07T01:04:02;100832.38;;;5.15;100.00
63190;BME280;49286;44.460;26.114;2022-12-07T01:06:28;100835.78;;;5.14;100.00
63190;BME280;49286;44.460;26.114;2022-12-07T01:08:55;100730.09;;;4.56;100.00
63190;BME280;49286;44.460;26.114;2022-12-07T01:11:23;100823.38;;;5.04;100.00
63190;BME280;49286;44.460;26.114;2022-12-07T01:13:51;100710.03;;;4.50;100.00
63190;BME280;49286;44.460;26.114;2022-12-07T01:16:17;100822.03;;;5.18;100.00
63190;BME280;49286;44.460;26.114;2022-12-07T01:18:49;100783.34;;;4.99;100.00
63190;BME280;49286;44.460;26.114;2022-12-07T01:21:18;100798.09;;;5.00;100.00
63190;BME280;49286;44.460;26.114;2022-12-07T01:23:44;100815.16;;;5.20;100.00
63190;BME280;49286;44.460;26.114;2022-12-07T01:26:12;100818.69;;;5.22;100.00
63190;BME280;49286;44.460;26.114;2022-12-07T01:28:38;100799.56;;;5.22;100.00
63190;BME280;49286;44.460;26.114;2022-12-07T01:31:09;100675.69;;;4.32;100.00
63190;BME280;49286;44.460;26.114;2022-12-07T01:33:37;100793.88;;;5.03;100.00
63190;BME280;49286;44.460;26.114;2022-12-07T01:36:08;100684.06;;;4.52;100.00
63190;BME280;49286;44.460;26.114;2022-12-07T01:38:37;100793.81;;;5.02;100.00
63190;BME280;49286;44.460;26.114;2022-12-07T01:41:03;100773.81;;;4.99;100.00
63190;BME280;49286;44.460;26.114;2022-12-07T01:43:31;100686.66;;;4.52;100.00
63190;BME280;49286;44.460;26.114;2022-12-07T01:45:57;100709.50;;;4.62;100.00
63190;BME280;49286;44.460;26.114;2022-12-07T01:48:29;100775.47;;;4.67;100.00
63190;BME280;49286;44.460;26.114;2022-12-07T01:50:56;100797.16;;;4.98;100.00
63190;BME280;49286;44.460;26.114;2022-12-07T01:53:26;100749.69;;;4.73;100.00
63190;BME280;49286;44.460;26.114;2022-12-07T01:55:54;100761.47;;;4.92;100.00
63190;BME280;49286;44.460;26.114;2022-12-07T01:58:21;100767.75;;;4.99;100.00
63190;BME280;49286;44.460;26.114;2022-12-07T02:00:49;100795.38;;;4.95;100.00
63190;BME280;49286;44.460;26.114;2022-12-07T02:03:20;100668.22;;;4.42;100.00
63190;BME280;49286;44.460;26.114;2022-12-07T02:05:47;100784.50;;;5.10;100.00
63190;BME280;49286;44.460;26.114;2022-12-07T02:08:14;100696.53;;;4.63;100.00
63190;BME280;49286;44.460;26.114;2022-12-07T02:10:40;100753.09;;;5.02;100.00
63190;BME280;49286;44.460;26.114;2022-12-07T02:13:38;100771.75;;;5.18;100.00
63190;BME280;49286;44.460;26.114;2022-12-07T02:30:15;100659.81;;;4.51;100.00
63190;BME280;49286;44.460;26.114;2022-12-07T02:41:07;100773.28;;;5.11;100.00
63190;BME280;49286;44.460;26.114;2022-12-07T02:43:41;100640.94;;;4.28;100.00
63190;BME280;49286;44.460;26.114;2022-12-07T02:46:17;100751.50;;;5.07;100.00
63190;BME280;49286;44.460;26.114;2022-12-07T02:48:45;100690.81;;;4.75;100.00
63190;BME280;49286;44.460;26.114;2022-12-07T02:51:12;100613.88;;;4.20;100.00
63190;BME280;49286;44.460;26.114;2022-12-07T02:53:38;100742.91;;;4.80;100.00
63190;BME280;49286;44.460;26.114;2022-12-07T03:12:22;100614.56;;;4.43;100.00
63190;BME280;49286;44.460;26.114;2022-12-07T03:15:00;100757.63;;;5.10;100.00
63190;BME280;49286;44.460;26.114;2022-12-07T03:17:29;100699.38;;;4.73;100.00
63190;BME280;49286;44.460;26.114;2022-12-07T03:19:58;100693.44;;;4.77;100.00
63190;BME280;49286;44.460;26.114;2022-12-07T03:22:29;100755.88;;;5.08;100.00
63190;BME280;49286;44.460;26.114;2022-12-07T03:25:04;100737.22;;;4.92;100.00
63190;BME280;49286;44.460;26.114;2022-12-07T03:30:12;100665.41;;;4.35;100.00
63190;BME280;49286;44.460;26.114;2022-12-07T03:32:53;100716.44;;;4.63;100.00
63190;BME280;49286;44.460;26.114;2022-12-07T03:35:28;100764.28;;;5.00;100.00
63190;BME280;49286;44.460;26.114;2022-12-07T03:38:11;100714.16;;;4.74;100.00
63190;BME280;49286;44.460;26.114;2022-12-07T03:43:15;100741.09;;;4.77;100.00
63190;BME280;49286;44.460;26.114;2022-12-07T03:45:56;100727.41;;;4.83;100.00
63190;BME280;49286;44.460;26.114;2022-12-07T03:48:39;100649.72;;;4.32;100.00
63190;BME280;49286;44.460;26.114;2022-12-07T03:53:48;100635.72;;;4.27;100.00
63190;BME280;49286;44.460;26.114;2022-12-07T03:56:17;100767.50;;;4.91;100.00
63190;BME280;49286;44.460;26.114;2022-12-07T03:58:43;100632.53;;;4.07;100.00
63190;BME280;49286;44.460;26.114;2022-12-07T04:01:09;100763.72;;;4.80;100.00
63190;BME280;49286;44.460;26.114;2022-12-07T04:03:35;100718.09;;;4.31;100.00
63190;BME280;49286;44.460;26.114;2022-12-07T04:06:00;100763.63;;;4.77;100.00
63190;BME280;49286;44.460;26.114;2022-12-07T04:08:26;100749.81;;;4.49;100.00
63190;BME280;49286;44.460;26.114;2022-12-07T04:10:52;100776.84;;;4.84;100.00
63190;BME280;49286;44.460;26.114;2022-12-07T04:13:19;100541.94;;;3.57;100.00
63190;BME280;49286;44.460;26.114;2022-12-07T04:15:44;100747.16;;;4.76;100.00
63190;BME280;49286;44.460;26.114;2022-12-07T04:18:09;100767.63;;;4.94;100.00
63190;BME280;49286;44.460;26.114;2022-12-07T04:20:35;100769.16;;;4.88;100.00
63190;BME280;49286;44.460;26.114;2022-12-07T04:23:01;100772.97;;;4.70;100.00
63190;BME280;49286;44.460;26.114;2022-12-07T04:25:26;100768.88;;;4.78;100.00
63190;BME280;49286;44.460;26.114;2022-12-07T04:27:51;100630.81;;;4.07;100.00
63190;BME280;49286;44.460;26.114;2022-12-07T04:30:17;100622.34;;;3.84;100.00
63190;BME280;49286;44.460;26.114;2022-12-07T04:32:43;100750.47;;;4.71;100.00
63190;BME280;49286;44.460;26.114;2022-12-07T04:35:09;100753.28;;;4.78;100.00
63190;BME280;49286;44.460;26.114;2022-12-07T04:37:34;100739.75;;;4.90;100.00
63190;BME280;49286;44.460;26.114;2022-12-07T04:40:00;100526.56;;;3.63;100.00
63190;BME280;49286;44.460;26.114;2022-12-07T04:42:25;100698.13;;;4.58;100.00
63190;BME280;49286;44.460;26.114;2022-12-07T04:44:51;100745.56;;;4.81;100.00
63190;BME280;49286;44.460;26.114;2022-12-07T04:47:16;100765.16;;;5.00;100.00
63190;BME280;49286;44.460;26.114;2022-12-07T04:49:42;100688.63;;;4.30;100.00
63190;BME280;49286;44.460;26.114;2022-12-07T04:52:07;100734.88;;;4.71;100.00
63190;BME280;49286;44.460;26.114;2022-12-07T04:54:33;100763.22;;;4.93;100.00
63190;BME280;49286;44.460;26.114;2022-12-07T04:56:58;100752.22;;;5.02;100.00
63190;BME280;49286;44.460;26.114;2022-12-07T04:59:24;100625.22;;;4.23;100.00
63190;BME280;49286;44.460;26.114;2022-12-07T05:01:49;100750.69;;;5.08;100.00
63190;BME280;49286;44.460;26.114;2022-12-07T05:04:15;100752.41;;;5.10;100.00
63190;BME280;49286;44.460;26.114;2022-12-07T05:06:41;100757.41;;;5.02;100.00
63190;BME280;49286;44.460;26.114;2022-12-07T05:09:07;100758.09;;;4.95;100.00
63190;BME280;49286;44.460;26.114;2022-12-07T05:11:32;100708.50;;;4.58;100.00
63190;BME280;49286;44.460;26.114;2022-12-07T05:16:37;100740.75;;;4.95;100.00
63190;BME280;49286;44.460;26.114;2022-12-07T05:19:04;100714.63;;;4.91;100.00
63190;BME280;49286;44.460;26.114;2022-12-07T05:21:29;100735.34;;;4.88;100.00
63190;BME280;49286;44.460;26.114;2022-12-07T05:23:55;100721.25;;;4.79;100.00
63190;BME280;49286;44.460;26.114;2022-12-07T05:26:20;100749.34;;;4.93;100.00
63190;BME280;49286;44.460;26.114;2022-12-07T05:28:50;100757.09;;;4.91;100.00
63190;BME280;49286;44.460;26.114;2022-12-07T05:31:16;100594.44;;;4.06;100.00
63190;BME280;49286;44.460;26.114;2022-12-07T05:33:42;100610.28;;;4.15;100.00
63190;BME280;49286;44.460;26.114;2022-12-07T05:36:07;100625.94;;;4.18;100.00
63190;BME280;49286;44.460;26.114;2022-12-07T05:38:33;100720.69;;;4.59;100.00
63190;BME280;49286;44.460;26.114;2022-12-07T05:41:03;100752.50;;;4.81;100.00
63190;BME280;49286;44.460;26.114;2022-12-07T05:43:29;100744.75;;;4.82;100.00
63190;BME280;49286;44.460;26.114;2022-12-07T05:45:55;100653.03;;;4.26;100.00
63190;BME280;49286;44.460;26.114;2022-12-07T05:48:20;100736.09;;;4.83;100.00
63190;BME280;49286;44.460;26.114;2022-12-07T05:50:49;100666.38;;;4.38;100.00
63190;BME280;49286;44.460;26.114;2022-12-07T05:53:15;100621.78;;;3.94;100.00
63190;BME280;49286;44.460;26.114;2022-12-07T05:55:40;100712.56;;;4.49;100.00
63190;BME280;49286;44.460;26.114;2022-12-07T05:58:06;100671.47;;;4.35;100.00
63190;BME280;49286;44.460;26.114;2022-12-07T06:00:50;100653.13;;;4.00;100.00
63190;BME280;49286;44.460;26.114;2022-12-07T06:03:16;100768.69;;;4.72;100.00
63190;BME280;49286;44.460;26.114;2022-12-07T06:05:41;100767.38;;;4.86;100.00
63190;BME280;49286;44.460;26.114;2022-12-07T06:08:07;100740.81;;;4.67;100.00
63190;BME280;49286;44.460;26.114;2022-12-07T06:10:32;100564.06;;;3.73;100.00
63190;BME280;49286;44.460;26.114;2022-12-07T06:12:58;100606.22;;;3.94;100.00
63190;BME280;49286;44.460;26.114;2022-12-07T06:15:23;100733.97;;;4.70;100.00
63190;BME280;49286;44.460;26.114;2022-12-07T06:17:49;100674.25;;;4.41;100.00
63190;BME280;49286;44.460;26.114;2022-12-07T06:20:14;100775.69;;;5.05;100.00
63190;BME280;49286;44.460;26.114;2022-12-07T06:22:40;100657.38;;;4.27;100.00
63190;BME280;49286;44.460;26.114;2022-12-07T06:25:06;100634.59;;;4.17;100.00
63190;BME280;49286;44.460;26.114;2022-12-07T06:27:32;100752.31;;;4.75;100.00
63190;BME280;49286;44.460;26.114;2022-12-07T06:29:58;100683.03;;;4.45;100.00
63190;BME280;49286;44.460;26.114;2022-12-07T06:32:23;100740.09;;;4.72;100.00
63190;BME280;49286;44.460;26.114;2022-12-07T06:34:49;100788.31;;;4.91;100.00
63190;BME280;49286;44.460;26.114;2022-12-07T06:37:14;100771.75;;;4.88;100.00
63190;BME280;49286;44.460;26.114;2022-12-07T06:39:40;100694.84;;;4.65;100.00
63190;BME280;49286;44.460;26.114;2022-12-07T06:42:05;100654.78;;;4.27;100.00
63190;BME280;49286;44.460;26.114;2022-12-07T06:44:32;100658.75;;;4.44;100.00
63190;BME280;49286;44.460;26.114;2022-12-07T06:46:58;100652.75;;;4.47;100.00
63190;BME280;49286;44.460;26.114;2022-12-07T06:49:23;100704.59;;;4.73;100.00
63190;BME280;49286;44.460;26.114;2022-12-07T06:51:49;100780.22;;;5.11;100.00
63190;BME280;49286;44.460;26.114;2022-12-07T06:54:15;100785.03;;;4.98;100.00
63190;BME280;49286;44.460;26.114;2022-12-07T06:56:41;100651.25;;;4.25;100.00
63190;BME280;49286;44.460;26.114;2022-12-07T06:59:07;100700.06;;;4.65;100.00
63190;BME280;49286;44.460;26.114;2022-12-07T07:01:34;100616.53;;;4.21;100.00
63190;BME280;49286;44.460;26.114;2022-12-07T07:04:00;100643.00;;;4.38;100.00
63190;BME280;49286;44.460;26.114;2022-12-07T07:06:26;100771.50;;;5.10;100.00
63190;BME280;49286;44.460;26.114;2022-12-07T07:08:52;100607.72;;;4.16;100.00
63190;BME280;49286;44.460;26.114;2022-12-07T07:11:17;100640.47;;;4.41;100.00
63190;BME280;49286;44.460;26.114;2022-12-07T07:13:43;100583.56;;;3.89;100.00
63190;BME280;49286;44.460;26.114;2022-12-07T07:16:09;100592.09;;;4.15;100.00
63190;BME280;49286;44.460;26.114;2022-12-07T07:18:34;100711.22;;;4.93;100.00
63190;BME280;49286;44.460;26.114;2022-12-07T07:21:00;100623.94;;;4.38;100.00
63190;BME280;49286;44.460;26.114;2022-12-07T07:23:26;100752.88;;;5.26;100.00
63190;BME280;49286;44.460;26.114;2022-12-07T07:25:51;100732.53;;;5.12;100.00
63190;BME280;49286;44.460;26.114;2022-12-07T07:28:17;100596.25;;;4.40;100.00
63190;BME280;49286;44.460;26.114;2022-12-07T07:30:42;100716.38;;;5.23;100.00
63190;BME280;49286;44.460;26.114;2022-12-07T07:33:09;100674.75;;;4.90;100.00
63190;BME280;49286;44.460;26.114;2022-12-07T07:35:35;100770.56;;;5.06;100.00
63190;BME280;49286;44.460;26.114;2022-12-07T07:38:00;100622.75;;;4.27;100.00
63190;BME280;49286;44.460;26.114;2022-12-07T07:40:26;100769.28;;;5.24;100.00
63190;BME280;49286;44.460;26.114;2022-12-07T07:42:53;100636.41;;;4.50;100.00
63190;BME280;49286;44.460;26.114;2022-12-07T07:45:24;100757.63;;;5.10;100.00
63190;BME280;49286;44.460;26.114;2022-12-07T07:47:50;100668.06;;;4.68;100.00
63190;BME280;49286;44.460;26.114;2022-12-07T07:50:16;100730.75;;;4.79;100.00
63190;BME280;49286;44.460;26.114;2022-12-07T07:52:41;100650.06;;;4.44;100.00
63190;BME280;49286;44.460;26.114;2022-12-07T07:55:07;100767.09;;;5.07;100.00
63190;BME280;49286;44.460;26.114;2022-12-07T07:57:34;100787.88;;;5.06;100.00
63190;BME280;49286;44.460;26.114;2022-12-07T08:00:00;100781.09;;;5.11;100.00
63190;BME280;49286;44.460;26.114;2022-12-07T08:05:02;100561.75;;;4.12;100.00
63190;BME280;49286;44.460;26.114;2022-12-07T08:07:29;100780.69;;;5.29;100.00
63190;BME280;49286;44.460;26.114;2022-12-07T08:09:54;100785.75;;;5.23;100.00
63190;BME280;49286;44.460;26.114;2022-12-07T08:12:20;100780.81;;;5.32;100.00
63190;BME280;49286;44.460;26.114;2022-12-07T08:14:45;100635.59;;;4.52;100.00
63190;BME280;49286;44.460;26.114;2022-12-07T08:17:10;100729.81;;;5.07;100.00
63190;BME280;49286;44.460;26.114;2022-12-07T08:19:37;100776.69;;;5.10;100.00
63190;BME280;49286;44.460;26.114;2022-12-07T08:22:03;100787.28;;;5.16;100.00
63190;BME280;49286;44.460;26.114;2022-12-07T08:24:28;100778.19;;;5.32;100.00
63190;BME280;49286;44.460;26.114;2022-12-07T08:26:57;100733.41;;;5.11;100.00
63190;BME280;49286;44.460;26.114;2022-12-07T08:29:22;100694.63;;;4.88;100.00
63190;BME280;49286;44.460;26.114;2022-12-07T08:31:48;100624.22;;;4.49;100.00
63190;BME280;49286;44.460;26.114;2022-12-07T08:34:14;100648.22;;;4.40;100.00
63190;BME280;49286;44.460;26.114;2022-12-07T08:36:39;100633.28;;;4.31;100.00
63190;BME280;49286;44.460;26.114;2022-12-07T08:39:05;100742.28;;;4.87;100.00
63190;BME280;49286;44.460;26.114;2022-12-07T08:41:31;100641.59;;;4.21;100.00
63190;BME280;49286;44.460;26.114;2022-12-07T08:43:56;100621.63;;;4.49;100.00
63190;BME280;49286;44.460;26.114;2022-12-07T08:46:31;100772.31;;;5.39;100.00
63190;BME280;49286;44.460;26.114;2022-12-07T08:49:10;100610.41;;;4.50;100.00
63190;BME280;49286;44.460;26.114;2022-12-07T08:51:37;100751.63;;;5.44;100.00
63190;BME280;49286;44.460;26.114;2022-12-07T08:54:07;100726.63;;;5.17;100.00
63190;BME280;49286;44.460;26.114;2022-12-07T08:56:34;100735.75;;;5.35;100.00
63190;BME280;49286;44.460;26.114;2022-12-07T08:59:00;100733.03;;;5.30;100.00
63190;BME280;49286;44.460;26.114;2022-12-07T09:01:26;100732.06;;;5.26;100.00
63190;BME280;49286;44.460;26.114;2022-12-07T09:03:52;100622.34;;;4.43;100.00
63190;BME280;49286;44.460;26.114;2022-12-07T09:06:17;100730.25;;;5.24;100.00
63190;BME280;49286;44.460;26.114;2022-12-07T09:08:47;100604.00;;;4.70;100.00
63190;BME280;49286;44.460;26.114;2022-12-07T09:11:14;100687.56;;;5.16;100.00
63190;BME280;49286;44.460;26.114;2022-12-07T09:13:40;100605.06;;;4.77;100.00
63190;BME280;49286;44.460;26.114;2022-12-07T09:16:06;100601.97;;;4.58;100.00
63190;BME280;49286;44.460;26.114;2022-12-07T09:18:31;100758.31;;;5.36;100.00
63190;BME280;49286;44.460;26.114;2022-12-07T09:20:57;100611.41;;;4.55;100.00
63190;BME280;49286;44.460;26.114;2022-12-07T09:23:22;100586.56;;;4.64;100.00
63190;BME280;49286;44.460;26.114;2022-12-07T09:25:48;100740.78;;;5.28;100.00
63190;BME280;49286;44.460;26.114;2022-12-07T09:28:13;100736.00;;;5.44;100.00
63190;BME280;49286;44.460;26.114;2022-12-07T09:30:39;100648.81;;;4.93;100.00
63190;BME280;49286;44.460;26.114;2022-12-07T09:33:09;100703.19;;;5.16;100.00
63190;BME280;49286;44.460;26.114;2022-12-07T09:35:35;100620.84;;;4.84;100.00
63190;BME280;49286;44.460;26.114;2022-12-07T09:38:00;100700.03;;;5.29;100.00
63190;BME280;49286;44.460;26.114;2022-12-07T09:40:27;100720.63;;;5.53;100.00
63190;BME280;49286;44.460;26.114;2022-12-07T09:42:54;100726.63;;;5.50;100.00
63190;BME280;49286;44.460;26.114;2022-12-07T09:45:24;100716.22;;;5.50;100.00
63190;BME280;49286;44.460;26.114;2022-12-07T09:47:51;100577.69;;;4.58;100.00
63190;BME280;49286;44.460;26.114;2022-12-07T09:50:21;100578.94;;;4.72;100.00
63190;BME280;49286;44.460;26.114;2022-12-07T09:52:48;100704.78;;;5.45;100.00
63190;BME280;49286;44.460;26.114;2022-12-07T09:55:23;100690.66;;;5.34;100.00
63190;BME280;49286;44.460;26.114;2022-12-07T09:57:50;100704.22;;;5.22;100.00
63190;BME280;49286;44.460;26.114;2022-12-07T10:00:20;100612.22;;;4.85;100.00
63190;BME280;49286;44.460;26.114;2022-12-07T10:02:56;100578.00;;;4.69;100.00
63190;BME280;49286;44.460;26.114;2022-12-07T10:05:42;100715.88;;;5.37;100.00
63190;BME280;49286;44.460;26.114;2022-12-07T10:08:13;100713.53;;;5.47;100.00
63190;BME280;49286;44.460;26.114;2022-12-07T10:10:39;100695.38;;;5.16;100.00
63190;BME280;49286;44.460;26.114;2022-12-07T10:13:13;100582.16;;;4.62;100.00
63190;BME280;49286;44.460;26.114;2022-12-07T10:20:47;100554.31;;;4.58;100.00
63190;BME280;49286;44.460;26.114;2022-12-07T10:23:17;100683.06;;;5.10;100.00
63190;BME280;49286;44.460;26.114;2022-12-07T10:25:44;100659.09;;;4.89;100.00
63190;BME280;49286;44.460;26.114;2022-12-07T10:28:18;100666.78;;;5.16;100.00
63190;BME280;49286;44.460;26.114;2022-12-07T10:31:00;100687.38;;;5.43;100.00
63190;BME280;49286;44.460;26.114;2022-12-07T10:33:36;100691.91;;;5.15;100.00
63190;BME280;49286;44.460;26.114;2022-12-07T10:39:00;100674.53;;;5.49;100.00
63190;BME280;49286;44.460;26.114;2022-12-07T10:41:26;100636.81;;;5.32;100.00
63190;BME280;49286;44.460;26.114;2022-12-07T10:43:54;100480.22;;;4.39;100.00
63190;BME280;49286;44.460;26.114;2022-12-07T10:46:43;100577.59;;;4.86;100.00
63190;BME280;49286;44.460;26.114;2022-12-07T10:51:52;100688.63;;;5.57;100.00
63190;BME280;49286;44.460;26.114;2022-12-07T11:00:22;100548.75;;;4.77;100.00
63190;BME280;49286;44.460;26.114;2022-12-07T11:05:55;100688.72;;;5.62;100.00
63190;BME280;49286;44.460;26.114;2022-12-07T11:09:04;100671.88;;;5.47;100.00
63190;BME280;49286;44.460;26.114;2022-12-07T11:11:44;100647.34;;;5.36;100.00
63190;BME280;49286;44.460;26.114;2022-12-07T11:14:31;100541.63;;;4.69;100.00
63190;BME280;49286;44.460;26.114;2022-12-07T11:17:10;100679.91;;;5.55;100.00
63190;BME280;49286;44.460;26.114;2022-12-07T11:28:18;100671.25;;;5.56;100.00
63190;BME280;49286;44.460;26.114;2022-12-07T11:31:18;100645.97;;;5.50;100.00
63190;BME280;49286;44.460;26.114;2022-12-07T11:36:44;100501.94;;;4.76;100.00
63190;BME280;49286;44.460;26.114;2022-12-07T11:41:41;100637.13;;;5.44;100.00
63190;BME280;49286;44.460;26.114;2022-12-07T11:44:45;100634.88;;;5.59;100.00
63190;BME280;49286;44.460;26.114;2022-12-07T11:47:23;100622.44;;;5.47;100.00
63190;BME280;49286;44.460;26.114;2022-12-07T11:51:10;100635.56;;;5.52;100.00
63190;BME280;49286;44.460;26.114;2022-12-07T11:53:14;100504.22;;;4.63;100.00
63190;BME280;49286;44.460;26.114;2022-12-07T11:55:56;100640.41;;;5.37;100.00
63190;BME280;49286;44.460;26.114;2022-12-07T11:58:51;100645.53;;;5.00;100.00
63190;BME280;49286;44.460;26.114;2022-12-07T12:03:52;100633.75;;;5.13;100.00
63190;BME280;49286;44.460;26.114;2022-12-07T12:06:22;100640.41;;;4.70;100.00
63190;BME280;49286;44.460;26.114;2022-12-07T12:14:30;100638.13;;;4.51;100.00
63190;BME280;49286;44.460;26.114;2022-12-07T12:16:59;100638.59;;;4.66;100.00
63190;BME280;49286;44.460;26.114;2022-12-07T12:22:28;100488.28;;;3.86;100.00
63190;BME280;49286;44.460;26.114;2022-12-07T12:24:56;100609.44;;;4.78;100.00
63190;BME280;49286;44.460;26.114;2022-12-07T12:27:27;100519.00;;;4.33;100.00
63190;BME280;49286;44.460;26.114;2022-12-07T12:29:57;100481.44;;;4.20;100.00
63190;BME280;49286;44.460;26.114;2022-12-07T12:32:40;100467.78;;;3.95;100.00
63190;BME280;49286;44.460;26.114;2022-12-07T12:37:54;100500.00;;;4.35;100.00
63190;BME280;49286;44.460;26.114;2022-12-07T12:42:52;100606.72;;;5.06;100.00
63190;BME280;49286;44.460;26.114;2022-12-07T12:45:31;100606.75;;;5.08;100.00
63190;BME280;49286;44.460;26.114;2022-12-07T12:47:58;100614.69;;;5.14;100.00
63190;BME280;49286;44.460;26.114;2022-12-07T12:50:35;100611.06;;;5.07;100.00
63190;BME280;49286;44.460;26.114;2022-12-07T12:53:25;100557.56;;;4.82;100.00
63190;BME280;49286;44.460;26.114;2022-12-07T12:56:22;100609.72;;;5.23;100.00
63190;BME280;49286;44.460;26.114;2022-12-07T13:01:46;100607.00;;;5.19;100.00
63190;BME280;49286;44.460;26.114;2022-12-07T13:04:24;100605.59;;;5.32;100.00
63190;BME280;49286;44.460;26.114;2022-12-07T13:06:51;100608.09;;;5.28;100.00
63190;BME280;49286;44.460;26.114;2022-12-07T13:09:26;100468.22;;;4.44;100.00
63190;BME280;49286;44.460;26.114;2022-12-07T13:12:05;100582.53;;;5.11;100.00
63190;BME280;49286;44.460;26.114;2022-12-07T13:14:58;100606.31;;;5.24;100.00
63190;BME280;49286;44.460;26.114;2022-12-07T13:20:00;100528.94;;;4.81;100.00
63190;BME280;49286;44.460;26.114;2022-12-07T13:27:41;100551.28;;;5.09;100.00
63190;BME280;49286;44.460;26.114;2022-12-07T13:30:19;100455.50;;;4.55;100.00
63190;BME280;49286;44.460;26.114;2022-12-07T13:32:55;100572.75;;;5.37;100.00
63190;BME280;49286;44.460;26.114;2022-12-07T13:35:41;100602.38;;;5.42;100.00
63190;BME280;49286;44.460;26.114;2022-12-07T13:38:34;100597.97;;;5.39;100.00
63190;BME280;49286;44.460;26.114;2022-12-07T13:41:05;100602.59;;;5.51;100.00
63190;BME280;49286;44.460;26.114;2022-12-07T13:44:00;100583.50;;;5.52;100.00
63190;BME280;49286;44.460;26.114;2022-12-07T13:46:44;100479.09;;;4.99;100.00
63190;BME280;49286;44.460;26.114;2022-12-07T13:49:28;100440.38;;;4.75;100.00
63190;BME280;49286;44.460;26.114;2022-12-07T13:51:55;100434.94;;;4.64;100.00
63190;BME280;49286;44.460;26.114;2022-12-07T13:54:32;100439.47;;;4.73;100.00
63190;BME280;49286;44.460;26.114;2022-12-07T13:56:58;100573.72;;;5.05;100.00
63190;BME280;49286;44.460;26.114;2022-12-07T13:59:25;100478.97;;;4.58;100.00
63190;BME280;49286;44.460;26.114;2022-12-07T14:01:53;100482.03;;;4.76;100.00
63190;BME280;49286;44.460;26.114;2022-12-07T14:04:35;100492.88;;;4.95;100.00
63190;BME280;49286;44.460;26.114;2022-12-07T14:10:03;100483.75;;;4.77;100.00
63190;BME280;49286;44.460;26.114;2022-12-07T14:12:31;100598.97;;;5.44;100.00
63190;BME280;49286;44.460;26.114;2022-12-07T14:14:59;100512.38;;;5.14;100.00
63190;BME280;49286;44.460;26.114;2022-12-07T14:17:27;100471.41;;;5.03;100.00
63190;BME280;49286;44.460;26.114;2022-12-07T14:22:36;100573.41;;;5.64;100.00
63190;BME280;49286;44.460;26.114;2022-12-07T14:25:18;100445.88;;;4.51;100.00
63190;BME280;49286;44.460;26.114;2022-12-07T14:28:24;100578.75;;;4.98;100.00
63190;BME280;49286;44.460;26.114;2022-12-07T14:30:50;100479.78;;;4.23;100.00
63190;BME280;49286;44.460;26.114;2022-12-07T14:33:15;100456.31;;;4.54;100.00
63190;BME280;49286;44.460;26.114;2022-12-07T14:35:41;100545.53;;;5.22;100.00
63190;BME280;49286;44.460;26.114;2022-12-07T14:38:07;100495.63;;;5.02;100.00
63190;BME280;49286;44.460;26.114;2022-12-07T14:40:33;100444.72;;;4.74;100.00
63190;BME280;49286;44.460;26.114;2022-12-07T14:43:17;100453.53;;;4.81;100.00
63190;BME280;49286;44.460;26.114;2022-12-07T14:45:43;100452.47;;;4.73;100.00
63190;BME280;49286;44.460;26.114;2022-12-07T14:48:13;100451.75;;;4.80;100.00
63190;BME280;49286;44.460;26.114;2022-12-07T14:50:44;100601.00;;;5.58;100.00